sensor_id;sensor_type;location;lat;lon;timestamp;pressure;altitude;pressure_sealevel;temperature;humidity
39051;BME280;24805;55.852;37.644;2023-06-19T00:01:25;99620.88;;;16.17;40.03
39051;BME280;24805;55.852;37.644;2023-06-19T00:06:27;99621.31;;;16.08;39.69
39051;BME280;24805;55.852;37.644;2023-06-19T00:11:30;99618.63;;;16.01;39.92
39051;BME280;24805;55.852;37.644;2023-06-19T00:16:32;99614.97;;;15.96;39.71
39051;BME280;24805;55.852;37.644;2023-06-19T00:21:34;99624.84;;;15.89;39.94
39051;BME280;24805;55.852;37.644;2023-06-19T00:26:36;99625.88;;;15.81;40.32
39051;BME280;24805;55.852;37.644;2023-06-19T00:31:39;99625.09;;;15.74;40.67
39051;BME280;24805;55.852;37.644;2023-06-19T00:36:43;99627.75;;;15.67;40.67
39051;BME280;24805;55.852;37.644;2023-06-19T00:41:45;99624.06;;;15.62;41.03
39051;BME280;24805;55.852;37.644;2023-06-19T00:46:54;99625.09;;;15.61;40.91
39051;BME280;24805;55.852;37.644;2023-06-19T00:52:01;99627.97;;;15.52;40.84
39051;BME280;24805;55.852;37.644;2023-06-19T00:57:04;99631.44;;;15.46;41.38
39051;BME280;24805;55.852;37.644;2023-06-19T01:02:06;99623.00;;;15.43;41.62
39051;BME280;24805;55.852;37.644;2023-06-19T01:07:12;99630.84;;;15.44;41.00
39051;BME280;24805;55.852;37.644;2023-06-19T01:12:20;99630.84;;;15.44;41.00
39051;BME280;24805;55.852;37.644;2023-06-19T01:17:26;99628.78;;;15.40;41.61
39051;BME280;24805;55.852;37.644;2023-06-19T01:22:31;99633.53;;;15.38;41.15
39051;BME280;24805;55.852;37.644;2023-06-19T01:27:34;99631.06;;;15.36;41.31
39051;BME280;24805;55.852;37.644;2023-06-19T01:37:44;99645.84;;;15.45;41.10
39051;BME280;24805;55.852;37.644;2023-06-19T01:42:48;99641.31;;;15.39;40.94
39051;BME280;24805;55.852;37.644;2023-06-19T01:47:51;99638.84;;;15.44;41.01
39051;BME280;24805;55.852;37.644;2023-06-19T01:52:55;99638.25;;;15.49;40.86
39051;BME280;24805;55.852;37.644;2023-06-19T01:57:57;99636.19;;;15.51;40.57
39051;BME280;24805;55.852;37.644;2023-06-19T02:02:59;99641.47;;;16.04;38.65
39051;BME280;24805;55.852;37.644;2023-06-19T02:08:01;99643.59;;;15.62;40.29
39051;BME280;24805;55.852;37.644;2023-06-19T02:13:03;99639.41;;;16.12;38.17
39051;BME280;24805;55.852;37.644;2023-06-19T02:18:06;99643.59;;;15.75;39.97
39051;BME280;24805;55.852;37.644;2023-06-19T02:23:08;99639.09;;;15.69;40.09
39051;BME280;24805;55.852;37.644;2023-06-19T02:28:10;99637.66;;;15.73;40.04
39051;BME280;24805;55.852;37.644;2023-06-19T02:33:12;99629.00;;;15.78;39.75
39051;BME280;24805;55.852;37.644;2023-06-19T02:38:15;99633.28;;;15.85;39.67
39051;BME280;24805;55.852;37.644;2023-06-19T02:43:17;99623.81;;;15.90;39.29
39051;BME280;24805;55.852;37.644;2023-06-19T02:48:19;99626.69;;;15.95;38.93
39051;BME280;24805;55.852;37.644;2023-06-19T02:53:21;99627.69;;;16.00;39.05
39051;BME280;24805;55.852;37.644;2023-06-19T02:58:24;99622.75;;;16.10;39.46
39051;BME280;24805;55.852;37.644;2023-06-19T03:03:29;99629.94;;;16.16;39.28
39051;BME280;24805;55.852;37.644;2023-06-19T03:08:34;99627.63;;;16.27;39.38
39051;BME280;24805;55.852;37.644;2023-06-19T03:18:49;99625.50;;;16.42;39.46
39051;BME280;24805;55.852;37.644;2023-06-19T03:23:57;99621.56;;;16.51;39.61
39051;BME280;24805;55.852;37.644;2023-06-19T03:29:00;99626.28;;;16.56;39.63
39051;BME280;24805;55.852;37.644;2023-06-19T03:34:08;99624.38;;;16.63;39.41
39051;BME280;24805;55.852;37.644;2023-06-19T03:39:13;99626.00;;;16.70;39.27
39051;BME280;24805;55.852;37.644;2023-06-19T03:44:17;99632.16;;;16.77;39.28
39051;BME280;24805;55.852;37.644;2023-06-19T03:49:19;99625.31;;;16.81;39.04
39051;BME280;24805;55.852;37.644;2023-06-19T03:54:24;99632.91;;;16.91;38.71
39051;BME280;24805;55.852;37.644;2023-06-19T03:59:28;99626.00;;;17.02;39.24
39051;BME280;24805;55.852;37.644;2023-06-19T04:04:30;99630.91;;;17.11;38.59
39051;BME280;24805;55.852;37.644;2023-06-19T04:09:32;99638.25;;;17.22;39.06
39051;BME280;24805;55.852;37.644;2023-06-19T04:14:35;99636.72;;;17.33;38.47
39051;BME280;24805;55.852;37.644;2023-06-19T04:19:37;99613.81;;;17.37;38.55
39051;BME280;24805;55.852;37.644;2023-06-19T04:24:39;99630.50;;;17.64;37.90
39051;BME280;24805;55.852;37.644;2023-06-19T04:29:42;99625.03;;;17.77;37.76
39051;BME280;24805;55.852;37.644;2023-06-19T04:34:44;99630.31;;;17.84;37.25
39051;BME280;24805;55.852;37.644;2023-06-19T04:39:47;99637.19;;;17.98;37.30
39051;BME280;24805;55.852;37.644;2023-06-19T04:44:50;99633.69;;;18.16;36.84
39051;BME280;24805;55.852;37.644;2023-06-19T04:49:52;99628.38;;;18.28;36.67
39051;BME280;24805;55.852;37.644;2023-06-19T04:54:54;99633.81;;;18.39;35.94
39051;BME280;24805;55.852;37.644;2023-06-19T04:59:56;99629.41;;;18.45;35.77
39051;BME280;24805;55.852;37.644;2023-06-19T05:04:59;99630.84;;;18.47;36.27
39051;BME280;24805;55.852;37.644;2023-06-19T05:10:07;99634.13;;;18.68;35.55
39051;BME280;24805;55.852;37.644;2023-06-19T05:15:10;99630.47;;;18.92;34.44
39051;BME280;24805;55.852;37.644;2023-06-19T05:20:13;99633.91;;;19.11;33.77
39051;BME280;24805;55.852;37.644;2023-06-19T05:25:16;99635.94;;;19.27;33.04
39051;BME280;24805;55.852;37.644;2023-06-19T05:30:18;99632.50;;;19.50;33.16
39051;BME280;24805;55.852;37.644;2023-06-19T05:35:20;99624.78;;;19.77;31.73
39051;BME280;24805;55.852;37.644;2023-06-19T05:40:23;99619.22;;;20.70;29.48
39051;BME280;24805;55.852;37.644;2023-06-19T05:45:26;99620.91;;;22.27;28.12
39051;BME280;24805;55.852;37.644;2023-06-19T05:50:28;99615.28;;;23.31;26.73
39051;BME280;24805;55.852;37.644;2023-06-19T05:55:30;99615.06;;;24.17;25.00
39051;BME280;24805;55.852;37.644;2023-06-19T06:00:32;99607.47;;;25.01;23.95
39051;BME280;24805;55.852;37.644;2023-06-19T06:05:35;99612.16;;;26.47;22.61
39051;BME280;24805;55.852;37.644;2023-06-19T06:10:38;99615.09;;;27.38;21.19
39051;BME280;24805;55.852;37.644;2023-06-19T06:15:40;99616.75;;;28.21;20.72
39051;BME280;24805;55.852;37.644;2023-06-19T06:20:42;99617.88;;;29.00;19.49
39051;BME280;24805;55.852;37.644;2023-06-19T06:25:45;99603.78;;;29.91;19.01
39051;BME280;24805;55.852;37.644;2023-06-19T06:30:47;99608.94;;;30.74;17.80
39051;BME280;24805;55.852;37.644;2023-06-19T06:35:50;99590.78;;;31.14;17.38
39051;BME280;24805;55.852;37.644;2023-06-19T06:40:53;99592.34;;;30.43;17.50
39051;BME280;24805;55.852;37.644;2023-06-19T06:45:55;99600.25;;;30.45;18.09
39051;BME280;24805;55.852;37.644;2023-06-19T06:50:57;99600.50;;;31.51;17.03
39051;BME280;24805;55.852;37.644;2023-06-19T06:56:03;99601.47;;;33.09;15.30
39051;BME280;24805;55.852;37.644;2023-06-19T07:01:06;99591.16;;;34.16;14.05
39051;BME280;24805;55.852;37.644;2023-06-19T07:06:09;99597.47;;;34.46;13.82
39051;BME280;24805;55.852;37.644;2023-06-19T07:11:11;99584.00;;;34.74;14.08
39051;BME280;24805;55.852;37.644;2023-06-19T07:16:13;99574.06;;;35.36;13.52
39051;BME280;24805;55.852;37.644;2023-06-19T07:21:15;99580.63;;;36.25;13.02
39051;BME280;24805;55.852;37.644;2023-06-19T07:26:17;99571.78;;;37.12;12.63
39051;BME280;24805;55.852;37.644;2023-06-19T07:31:19;99559.09;;;37.11;12.08
39051;BME280;24805;55.852;37.644;2023-06-19T07:36:22;99554.00;;;38.04;11.57
39051;BME280;24805;55.852;37.644;2023-06-19T07:41:24;99562.19;;;38.67;11.19
39051;BME280;24805;55.852;37.644;2023-06-19T07:46:26;99558.19;;;40.13;10.37
39051;BME280;24805;55.852;37.644;2023-06-19T07:51:28;99554.16;;;40.67;9.44
39051;BME280;24805;55.852;37.644;2023-06-19T07:56:31;99549.66;;;41.59;8.92
39051;BME280;24805;55.852;37.644;2023-06-19T08:01:34;99552.69;;;41.88;9.08
39051;BME280;24805;55.852;37.644;2023-06-19T08:06:36;99556.69;;;42.49;8.27
39051;BME280;24805;55.852;37.644;2023-06-19T08:11:38;99552.66;;;43.61;7.43
39051;BME280;24805;55.852;37.644;2023-06-19T08:16:40;99552.66;;;44.15;7.69
39051;BME280;24805;55.852;37.644;2023-06-19T08:21:42;99554.63;;;44.25;7.06
39051;BME280;24805;55.852;37.644;2023-06-19T08:26:45;99551.06;;;45.15;6.51
39051;BME280;24805;55.852;37.644;2023-06-19T08:31:47;99558.00;;;44.96;6.36
39051;BME280;24805;55.852;37.644;2023-06-19T08:36:49;99547.63;;;45.52;6.55
39051;BME280;24805;55.852;37.644;2023-06-19T08:41:51;99539.16;;;45.63;6.10
39051;BME280;24805;55.852;37.644;2023-06-19T08:46:55;99526.19;;;45.80;5.98
39051;BME280;24805;55.852;37.644;2023-06-19T08:51:57;99532.03;;;45.55;6.29
39051;BME280;24805;55.852;37.644;2023-06-19T08:57:02;99535.56;;;46.07;6.22
39051;BME280;24805;55.852;37.644;2023-06-19T09:02:06;99514.94;;;46.24;5.79
39051;BME280;24805;55.852;37.644;2023-06-19T09:07:08;99523.59;;;46.37;5.33
39051;BME280;24805;55.852;37.644;2023-06-19T09:12:19;99516.47;;;46.67;5.07
39051;BME280;24805;55.852;37.644;2023-06-19T09:17:30;99506.38;;;46.73;5.01
39051;BME280;24805;55.852;37.644;2023-06-19T09:22:44;99512.97;;;47.40;5.25
39051;BME280;24805;55.852;37.644;2023-06-19T09:27:46;99506.53;;;47.89;4.34
39051;BME280;24805;55.852;37.644;2023-06-19T09:32:48;99522.59;;;47.65;4.59
39051;BME280;24805;55.852;37.644;2023-06-19T09:37:51;99514.59;;;47.87;4.20
39051;BME280;24805;55.852;37.644;2023-06-19T09:42:55;99513.06;;;48.65;3.45
39051;BME280;24805;55.852;37.644;2023-06-19T09:48:02;99515.19;;;48.97;3.54
39051;BME280;24805;55.852;37.644;2023-06-19T09:53:24;99495.78;;;49.52;3.08
39051;BME280;24805;55.852;37.644;2023-06-19T09:58:27;99489.09;;;49.29;3.58
39051;BME280;24805;55.852;37.644;2023-06-19T10:03:31;99491.19;;;49.58;3.29
39051;BME280;24805;55.852;37.644;2023-06-19T10:08:41;99486.72;;;48.76;3.95
39051;BME280;24805;55.852;37.644;2023-06-19T10:13:45;99478.25;;;47.53;4.21
39051;BME280;24805;55.852;37.644;2023-06-19T10:18:47;99475.38;;;47.80;4.38
39051;BME280;24805;55.852;37.644;2023-06-19T10:23:54;99479.06;;;48.76;3.35
39051;BME280;24805;55.852;37.644;2023-06-19T10:28:58;99466.88;;;48.99;3.32
39051;BME280;24805;55.852;37.644;2023-06-19T10:34:02;99473.72;;;48.98;3.18
39051;BME280;24805;55.852;37.644;2023-06-19T10:39:05;99459.63;;;48.26;3.35
39051;BME280;24805;55.852;37.644;2023-06-19T10:44:08;99455.94;;;48.49;3.91
39051;BME280;24805;55.852;37.644;2023-06-19T10:49:14;99458.78;;;48.85;3.92
39051;BME280;24805;55.852;37.644;2023-06-19T10:54:16;99455.28;;;48.41;3.67
39051;BME280;24805;55.852;37.644;2023-06-19T10:59:19;99452.09;;;47.33;3.97
39051;BME280;24805;55.852;37.644;2023-06-19T11:04:21;99446.63;;;46.72;4.11
39051;BME280;24805;55.852;37.644;2023-06-19T11:09:35;99423.75;;;46.43;4.58
39051;BME280;24805;55.852;37.644;2023-06-19T11:14:37;99439.75;;;46.77;4.28
39051;BME280;24805;55.852;37.644;2023-06-19T11:19:41;99437.03;;;47.47;4.30
39051;BME280;24805;55.852;37.644;2023-06-19T11:24:46;99438.94;;;47.96;3.91
39051;BME280;24805;55.852;37.644;2023-06-19T11:29:55;99428.00;;;48.38;3.79
39051;BME280;24805;55.852;37.644;2023-06-19T11:35:04;99425.94;;;47.83;3.96
39051;BME280;24805;55.852;37.644;2023-06-19T11:40:09;99412.00;;;46.21;4.05
39051;BME280;24805;55.852;37.644;2023-06-19T11:45:18;99420.19;;;45.71;4.25
39051;BME280;24805;55.852;37.644;2023-06-19T11:50:26;99414.94;;;43.86;4.99
39051;BME280;24805;55.852;37.644;2023-06-19T11:55:29;99407.94;;;42.06;6.31
39051;BME280;24805;55.852;37.644;2023-06-19T12:00:31;99408.13;;;41.21;7.05
39051;BME280;24805;55.852;37.644;2023-06-19T12:05:34;99389.38;;;41.14;7.03
39051;BME280;24805;55.852;37.644;2023-06-19T12:10:36;99397.91;;;41.32;6.89
39051;BME280;24805;55.852;37.644;2023-06-19T12:15:38;99392.25;;;41.80;7.20
39051;BME280;24805;55.852;37.644;2023-06-19T12:20:40;99393.78;;;42.53;6.26
39051;BME280;24805;55.852;37.644;2023-06-19T12:25:43;99373.78;;;42.34;6.70
39051;BME280;24805;55.852;37.644;2023-06-19T12:30:45;99379.88;;;41.19;7.39
39051;BME280;24805;55.852;37.644;2023-06-19T12:35:50;99372.72;;;40.07;7.43
39051;BME280;24805;55.852;37.644;2023-06-19T12:40:52;99354.47;;;39.23;8.43
39051;BME280;24805;55.852;37.644;2023-06-19T12:45:54;99360.03;;;38.35;8.86
39051;BME280;24805;55.852;37.644;2023-06-19T12:50:57;99367.06;;;38.52;9.30
39051;BME280;24805;55.852;37.644;2023-06-19T12:56:00;99356.19;;;39.31;8.58
39051;BME280;24805;55.852;37.644;2023-06-19T13:01:07;99357.69;;;39.02;8.91
39051;BME280;24805;55.852;37.644;2023-06-19T13:06:09;99336.22;;;38.53;9.16
39051;BME280;24805;55.852;37.644;2023-06-19T13:11:11;99342.00;;;38.25;8.61
39051;BME280;24805;55.852;37.644;2023-06-19T13:16:14;99338.78;;;37.85;9.12
39051;BME280;24805;55.852;37.644;2023-06-19T13:21:18;99332.44;;;37.14;9.82
39051;BME280;24805;55.852;37.644;2023-06-19T13:26:20;99324.25;;;35.87;10.26
39051;BME280;24805;55.852;37.644;2023-06-19T13:31:22;99324.78;;;34.34;11.49
39051;BME280;24805;55.852;37.644;2023-06-19T13:36:25;99304.59;;;32.79;12.51
39051;BME280;24805;55.852;37.644;2023-06-19T13:41:28;99307.13;;;31.43;13.17
39051;BME280;24805;55.852;37.644;2023-06-19T13:46:33;99301.38;;;30.57;13.94
39051;BME280;24805;55.852;37.644;2023-06-19T13:51:35;99293.88;;;29.81;14.93
39051;BME280;24805;55.852;37.644;2023-06-19T13:56:37;99304.63;;;29.01;15.29
39051;BME280;24805;55.852;37.644;2023-06-19T14:01:40;99296.69;;;28.44;16.33
39051;BME280;24805;55.852;37.644;2023-06-19T14:06:43;99298.00;;;28.15;16.75
39051;BME280;24805;55.852;37.644;2023-06-19T14:11:45;99284.19;;;27.92;16.56
39051;BME280;24805;55.852;37.644;2023-06-19T14:16:48;99296.28;;;27.67;17.26
39051;BME280;24805;55.852;37.644;2023-06-19T14:21:51;99293.81;;;27.47;17.00
39051;BME280;24805;55.852;37.644;2023-06-19T14:26:53;99285.06;;;27.31;17.87
39051;BME280;24805;55.852;37.644;2023-06-19T14:31:55;99282.00;;;27.14;17.45
39051;BME280;24805;55.852;37.644;2023-06-19T14:36:57;99288.22;;;26.96;17.00
39051;BME280;24805;55.852;37.644;2023-06-19T14:41:59;99287.72;;;26.89;17.12
39051;BME280;24805;55.852;37.644;2023-06-19T14:47:02;99287.72;;;26.65;17.27
39051;BME280;24805;55.852;37.644;2023-06-19T14:52:05;99278.63;;;26.51;17.79
39051;BME280;24805;55.852;37.644;2023-06-19T14:57:08;99263.31;;;26.31;17.11
39051;BME280;24805;55.852;37.644;2023-06-19T15:02:11;99269.22;;;26.04;17.53
39051;BME280;24805;55.852;37.644;2023-06-19T15:07:13;99269.41;;;25.84;17.52
39051;BME280;24805;55.852;37.644;2023-06-19T15:12:15;99265.16;;;25.72;17.45
39051;BME280;24805;55.852;37.644;2023-06-19T15:17:17;99270.88;;;25.61;17.42
39051;BME280;24805;55.852;37.644;2023-06-19T15:22:20;99262.00;;;25.50;17.74
39051;BME280;24805;55.852;37.644;2023-06-19T15:27:22;99269.44;;;25.34;17.86
39051;BME280;24805;55.852;37.644;2023-06-19T15:32:24;99262.13;;;25.25;18.04
39051;BME280;24805;55.852;37.644;2023-06-19T15:37:26;99261.66;;;25.18;18.04
39051;BME280;24805;55.852;37.644;2023-06-19T15:42:28;99264.41;;;25.08;18.10
39051;BME280;24805;55.852;37.644;2023-06-19T15:47:33;99266.06;;;24.98;16.82
39051;BME280;24805;55.852;37.644;2023-06-19T15:52:36;99268.53;;;24.85;16.97
39051;BME280;24805;55.852;37.644;2023-06-19T15:57:38;99272.84;;;24.91;16.94
39051;BME280;24805;55.852;37.644;2023-06-19T16:02:41;99283.22;;;24.68;17.18
39051;BME280;24805;55.852;37.644;2023-06-19T16:07:49;99284.09;;;24.54;17.40
39051;BME280;24805;55.852;37.644;2023-06-19T16:12:51;99278.94;;;24.42;18.54
39051;BME280;24805;55.852;37.644;2023-06-19T16:17:54;99274.38;;;24.27;19.00
39051;BME280;24805;55.852;37.644;2023-06-19T16:22:57;99269.19;;;24.11;19.48
39051;BME280;24805;55.852;37.644;2023-06-19T16:27:59;99271.91;;;23.95;19.82
39051;BME280;24805;55.852;37.644;2023-06-19T16:33:03;99267.84;;;23.83;20.14
39051;BME280;24805;55.852;37.644;2023-06-19T16:38:05;99272.72;;;23.70;21.51
39051;BME280;24805;55.852;37.644;2023-06-19T16:43:09;99281.09;;;23.64;21.83
39051;BME280;24805;55.852;37.644;2023-06-19T16:48:11;99277.28;;;23.55;22.94
39051;BME280;24805;55.852;37.644;2023-06-19T16:53:14;99272.63;;;23.45;23.17
39051;BME280;24805;55.852;37.644;2023-06-19T16:58:16;99274.78;;;23.38;24.09
39051;BME280;24805;55.852;37.644;2023-06-19T17:03:19;99248.72;;;23.12;24.39
39051;BME280;24805;55.852;37.644;2023-06-19T17:08:21;99272.53;;;23.10;25.04
39051;BME280;24805;55.852;37.644;2023-06-19T17:13:23;99274.09;;;22.95;25.03
39051;BME280;24805;55.852;37.644;2023-06-19T17:18:26;99281.88;;;22.82;25.88
39051;BME280;24805;55.852;37.644;2023-06-19T17:23:28;99254.94;;;22.60;25.50
39051;BME280;24805;55.852;37.644;2023-06-19T17:28:30;99276.31;;;22.61;25.54
39051;BME280;24805;55.852;37.644;2023-06-19T17:33:33;99278.72;;;22.53;25.71
39051;BME280;24805;55.852;37.644;2023-06-19T17:38:35;99274.81;;;22.39;25.76
39051;BME280;24805;55.852;37.644;2023-06-19T17:43:37;99278.75;;;22.21;26.08
39051;BME280;24805;55.852;37.644;2023-06-19T17:48:39;99279.16;;;22.03;26.38
39051;BME280;24805;55.852;37.644;2023-06-19T17:53:43;99285.16;;;21.83;26.96
39051;BME280;24805;55.852;37.644;2023-06-19T17:58:45;99279.25;;;21.59;27.10
39051;BME280;24805;55.852;37.644;2023-06-19T18:03:47;99294.31;;;21.50;27.75
39051;BME280;24805;55.852;37.644;2023-06-19T18:08:50;99298.47;;;21.36;28.27
39051;BME280;24805;55.852;37.644;2023-06-19T18:13:52;99304.50;;;21.21;28.27
39051;BME280;24805;55.852;37.644;2023-06-19T18:18:54;99302.97;;;21.08;28.77
39051;BME280;24805;55.852;37.644;2023-06-19T18:23:56;99310.13;;;20.97;29.20
39051;BME280;24805;55.852;37.644;2023-06-19T18:28:58;99312.34;;;20.84;29.38
39051;BME280;24805;55.852;37.644;2023-06-19T18:34:01;99314.59;;;20.70;30.09
39051;BME280;24805;55.852;37.644;2023-06-19T18:39:04;99313.31;;;20.56;30.42
39051;BME280;24805;55.852;37.644;2023-06-19T18:44:06;99313.97;;;20.46;30.85
39051;BME280;24805;55.852;37.644;2023-06-19T18:49:08;99322.53;;;20.43;31.08
39051;BME280;24805;55.852;37.644;2023-06-19T18:54:10;99317.09;;;20.38;31.38
39051;BME280;24805;55.852;37.644;2023-06-19T18:59:13;99319.94;;;20.32;31.77
39051;BME280;24805;55.852;37.644;2023-06-19T19:04:15;99318.34;;;20.19;32.05
39051;BME280;24805;55.852;37.644;2023-06-19T19:09:17;99318.22;;;20.09;32.29
39051;BME280;24805;55.852;37.644;2023-06-19T19:14:19;99322.03;;;19.96;32.57
39051;BME280;24805;55.852;37.644;2023-06-19T19:19:21;99313.91;;;19.79;32.77
39051;BME280;24805;55.852;37.644;2023-06-19T19:24:23;99312.69;;;19.70;33.30
39051;BME280;24805;55.852;37.644;2023-06-19T19:29:26;99310.03;;;19.58;33.30
39051;BME280;24805;55.852;37.644;2023-06-19T19:34:28;99308.78;;;19.49;33.69
39051;BME280;24805;55.852;37.644;2023-06-19T19:39:30;99306.97;;;19.38;34.04
39051;BME280;24805;55.852;37.644;2023-06-19T19:44:36;99302.53;;;19.32;34.31
39051;BME280;24805;55.852;37.644;2023-06-19T19:49:38;99301.84;;;19.25;34.41
39051;BME280;24805;55.852;37.644;2023-06-19T19:54:40;99303.59;;;19.31;35.20
39051;BME280;24805;55.852;37.644;2023-06-19T19:59:42;99295.03;;;19.34;34.41
39051;BME280;24805;55.852;37.644;2023-06-19T20:04:44;99298.44;;;19.30;35.09
39051;BME280;24805;55.852;37.644;2023-06-19T20:09:46;99296.13;;;19.21;35.52
39051;BME280;24805;55.852;37.644;2023-06-19T20:14:48;99296.59;;;19.18;35.43
39051;BME280;24805;55.852;37.644;2023-06-19T20:19:51;99293.13;;;19.18;35.71
39051;BME280;24805;55.852;37.644;2023-06-19T20:24:53;99290.44;;;19.18;35.90
39051;BME280;24805;55.852;37.644;2023-06-19T20:29:55;99290.75;;;19.21;35.82
39051;BME280;24805;55.852;37.644;2023-06-19T20:34:57;99288.28;;;19.20;35.93
39051;BME280;24805;55.852;37.644;2023-06-19T20:39:59;99270.56;;;19.07;35.85
39051;BME280;24805;55.852;37.644;2023-06-19T20:45:09;99285.19;;;19.11;35.88
39051;BME280;24805;55.852;37.644;2023-06-19T20:50:12;99282.50;;;19.00;35.82
39051;BME280;24805;55.852;37.644;2023-06-19T20:55:16;99293.41;;;18.93;36.42
39051;BME280;24805;55.852;37.644;2023-06-19T21:00:18;99293.75;;;18.85;36.64
39051;BME280;24805;55.852;37.644;2023-06-19T21:05:21;99287.94;;;18.76;36.91
39051;BME280;24805;55.852;37.644;2023-06-19T21:10:23;99281.88;;;18.69;37.43
39051;BME280;24805;55.852;37.644;2023-06-19T21:15:26;99287.72;;;18.66;37.31
39051;BME280;24805;55.852;37.644;2023-06-19T21:20:28;99284.78;;;18.68;36.96
39051;BME280;24805;55.852;37.644;2023-06-19T21:25:31;99279.19;;;18.69;37.06
39051;BME280;24805;55.852;37.644;2023-06-19T21:30:33;99278.84;;;18.77;36.29
39051;BME280;24805;55.852;37.644;2023-06-19T21:35:35;99279.16;;;18.81;36.37
39051;BME280;24805;55.852;37.644;2023-06-19T21:40:37;99282.44;;;18.83;36.53
39051;BME280;24805;55.852;37.644;2023-06-19T21:45:39;99281.13;;;18.85;36.86
39051;BME280;24805;55.852;37.644;2023-06-19T21:50:41;99262.00;;;18.70;36.37
39051;BME280;24805;55.852;37.644;2023-06-19T21:55:44;99268.41;;;18.81;36.03
39051;BME280;24805;55.852;37.644;2023-06-19T22:00:46;99270.84;;;18.82;36.15
39051;BME280;24805;55.852;37.644;2023-06-19T22:05:48;99274.28;;;18.78;36.30
39051;BME280;24805;55.852;37.644;2023-06-19T22:10:50;99269.03;;;18.71;36.49
39051;BME280;24805;55.852;37.644;2023-06-19T22:15:53;99262.72;;;18.66;36.59
39051;BME280;24805;55.852;37.644;2023-06-19T22:20:56;99262.94;;;18.64;36.26
39051;BME280;24805;55.852;37.644;2023-06-19T22:25:58;99260.38;;;18.69;36.36
39051;BME280;24805;55.852;37.644;2023-06-19T22:31:00;99263.25;;;18.79;36.38
39051;BME280;24805;55.852;37.644;2023-06-19T22:36:02;99249.59;;;18.92;36.43
39051;BME280;24805;55.852;37.644;2023-06-19T22:41:05;99257.25;;;19.01;36.61
39051;BME280;24805;55.852;37.644;2023-06-19T22:46:09;99254.56;;;19.01;36.55
39051;BME280;24805;55.852;37.644;2023-06-19T22:51:11;99251.22;;;18.93;36.60
39051;BME280;24805;55.852;37.644;2023-06-19T22:56:13;99243.97;;;18.82;36.65
39051;BME280;24805;55.852;37.644;2023-06-19T23:01:16;99235.38;;;18.69;36.54
39051;BME280;24805;55.852;37.644;2023-06-19T23:06:27;99238.31;;;18.55;37.22
39051;BME280;24805;55.852;37.644;2023-06-19T23:11:29;99233.16;;;18.42;37.64
39051;BME280;24805;55.852;37.644;2023-06-19T23:16:31;99228.03;;;18.29;38.33
39051;BME280;24805;55.852;37.644;2023-06-19T23:21:34;99233.97;;;18.19;38.30
39051;BME280;24805;55.852;37.644;2023-06-19T23:26:36;99228.97;;;18.11;38.55
39051;BME280;24805;55.852;37.644;2023-06-19T23:31:38;99221.72;;;18.00;38.87
39051;BME280;24805;55.852;37.644;2023-06-19T23:36:43;99227.81;;;17.96;39.05
39051;BME280;24805;55.852;37.644;2023-06-19T23:41:45;99225.47;;;17.87;39.08
39051;BME280;24805;55.852;37.644;2023-06-19T23:46:47;99232.09;;;17.85;39.64
39051;BME280;24805;55.852;37.644;2023-06-19T23:51:49;99227.41;;;17.80;39.70
39051;BME280;24805;55.852;37.644;2023-06-19T23:56:51;99224.63;;;17.75;40.00
